createdAt,value
2023-04-08T00:00:08.108Z,0.00
2023-04-08T00:01:08.070Z,0.00
2023-04-08T00:02:08.135Z,0.00
2023-04-08T00:03:08.242Z,0.00
2023-04-08T00:04:08.254Z,0.00
2023-04-08T00:05:08.021Z,0.00
2023-04-08T00:06:08.015Z,0.00
2023-04-08T00:07:08.018Z,0.00
2023-04-08T00:08:08.023Z,0.00
2023-04-08T00:09:07.989Z,0.00
2023-04-08T00:10:07.988Z,0.00
2023-04-08T00:11:07.950Z,0.00
2023-04-08T00:12:07.941Z,0.00
2023-04-08T00:13:07.976Z,0.00
2023-04-08T00:14:07.936Z,0.00
2023-04-08T00:15:07.932Z,0.00
2023-04-08T00:16:07.902Z,0.00
2023-04-08T00:17:07.981Z,0.00
2023-04-08T00:18:08.856Z,0.00
2023-04-08T00:19:07.887Z,0.00
2023-04-08T00:20:08.115Z,0.00
2023-04-08T00:21:07.850Z,0.00
2023-04-08T00:22:07.863Z,0.00
2023-04-08T00:23:07.825Z,0.00
2023-04-08T00:24:07.846Z,0.00
2023-04-08T00:25:07.799Z,0.00
2023-04-08T00:26:07.787Z,0.00
2023-04-08T00:27:07.780Z,0.00
2023-04-08T00:28:07.780Z,0.00
2023-04-08T00:29:07.752Z,0.00
2023-04-08T00:30:07.836Z,0.00
2023-04-08T00:31:07.814Z,0.00
2023-04-08T00:32:07.778Z,0.00
2023-04-08T00:33:07.770Z,0.00
2023-04-08T00:34:07.712Z,0.00
2023-04-08T00:35:15.355Z,0.00
2023-04-08T00:36:07.688Z,0.00
2023-04-08T00:37:07.689Z,0.00
2023-04-08T00:38:07.652Z,0.00
2023-04-08T00:39:07.640Z,0.00
2023-04-08T00:40:07.655Z,0.00
2023-04-08T00:41:07.636Z,0.00
2023-04-08T00:42:07.632Z,0.00
2023-04-08T00:43:07.601Z,0.00
2023-04-08T00:44:07.591Z,0.00
2023-04-08T00:45:07.580Z,0.00
2023-04-08T00:46:07.590Z,0.00
2023-04-08T00:47:07.593Z,0.00
2023-04-08T00:48:07.551Z,0.00
2023-04-08T00:49:08.348Z,0.00
2023-04-08T00:50:07.524Z,0.00
2023-04-08T00:51:07.538Z,0.00
2023-04-08T00:52:07.505Z,0.00
2023-04-08T00:53:07.490Z,0.00
2023-04-08T00:54:07.501Z,0.00
2023-04-08T00:55:07.466Z,0.00
2023-04-08T00:56:07.500Z,0.00
2023-04-08T00:57:07.473Z,0.00
2023-04-08T00:58:07.442Z,0.00
2023-04-08T00:59:07.432Z,0.00
2023-04-08T01:00:07.469Z,0.00
2023-04-08T01:01:07.489Z,0.00
2023-04-08T01:02:07.515Z,0.00
2023-04-08T01:03:07.555Z,0.00
2023-04-08T01:04:07.430Z,0.00
2023-04-08T01:05:07.401Z,0.00
2023-04-08T01:06:07.386Z,0.00
2023-04-08T01:07:07.357Z,0.00
2023-04-08T01:08:07.338Z,0.00
2023-04-08T01:09:07.309Z,0.00
2023-04-08T01:10:07.303Z,0.00
2023-04-08T01:11:07.287Z,0.00
2023-04-08T01:12:07.324Z,0.00
2023-04-08T01:13:07.267Z,0.00
2023-04-08T01:14:07.261Z,0.00
2023-04-08T01:15:07.254Z,0.00
2023-04-08T01:16:07.264Z,0.00
2023-04-08T01:17:07.265Z,0.00
2023-04-08T01:18:07.226Z,0.00
2023-04-08T01:19:07.210Z,0.00
2023-04-08T01:20:07.238Z,0.00
2023-04-08T01:21:07.179Z,0.00
2023-04-08T01:22:07.189Z,0.00
2023-04-08T01:23:07.154Z,0.00
2023-04-08T01:24:07.152Z,0.00
2023-04-08T01:25:07.132Z,0.00
2023-04-08T01:26:07.140Z,0.00
2023-04-08T01:27:07.161Z,0.00
2023-04-08T01:28:07.129Z,0.00
2023-04-08T01:29:07.106Z,0.00
2023-04-08T01:30:07.107Z,0.00
2023-04-08T01:31:07.125Z,0.00
2023-04-08T01:32:07.066Z,0.00
2023-04-08T01:33:07.042Z,0.00
2023-04-08T01:34:07.055Z,0.00
2023-04-08T01:35:07.028Z,0.00
2023-04-08T01:36:07.090Z,0.00
2023-04-08T01:37:07.026Z,0.00
2023-04-08T01:38:07.011Z,0.00
2023-04-08T01:39:06.984Z,0.00
2023-04-08T01:40:06.991Z,0.00
2023-04-08T01:41:06.962Z,0.00
2023-04-08T01:42:06.967Z,0.00
2023-04-08T01:43:06.949Z,0.00
2023-04-08T01:44:06.995Z,0.00
2023-04-08T01:45:06.956Z,0.00
2023-04-08T01:46:06.909Z,0.00
2023-04-08T01:47:07.095Z,0.00
2023-04-08T01:48:06.968Z,0.00
2023-04-08T01:49:06.897Z,0.00
2023-04-08T01:50:06.865Z,0.00
2023-04-08T01:51:06.867Z,0.00
2023-04-08T01:52:06.849Z,0.00
2023-04-08T01:53:06.842Z,0.00
2023-04-08T01:54:06.844Z,0.00
2023-04-08T01:55:06.814Z,0.00
2023-04-08T01:56:06.822Z,0.00
2023-04-08T01:57:06.786Z,0.00
2023-04-08T01:58:06.774Z,0.00
2023-04-08T01:59:06.777Z,0.00
2023-04-08T02:00:06.798Z,0.00
2023-04-08T02:01:06.921Z,0.00
2023-04-08T02:02:06.810Z,0.00
2023-04-08T02:03:07.071Z,0.00
2023-04-08T02:04:06.800Z,0.00
2023-04-08T02:05:06.717Z,0.00
2023-04-08T02:06:06.693Z,0.00
2023-04-08T02:07:06.676Z,0.00
2023-04-08T02:08:06.665Z,0.00
2023-04-08T02:09:06.671Z,0.00
2023-04-08T02:10:06.641Z,0.00
2023-04-08T02:11:06.658Z,0.00
2023-04-08T02:12:06.623Z,0.00
2023-04-08T02:13:06.647Z,0.00
2023-04-08T02:14:06.602Z,0.00
2023-04-08T02:15:06.742Z,0.00
2023-04-08T02:16:06.614Z,0.00
2023-04-08T02:17:06.566Z,0.00
2023-04-08T02:18:06.603Z,0.00
2023-04-08T02:19:06.558Z,0.00
2023-04-08T02:20:06.548Z,0.00
2023-04-08T02:21:06.556Z,0.00
2023-04-08T02:22:06.507Z,0.00
2023-04-08T02:23:06.522Z,0.00
2023-04-08T02:24:06.488Z,0.00
2023-04-08T02:25:06.484Z,0.00
2023-04-08T02:26:06.467Z,0.00
2023-04-08T02:27:06.462Z,0.00
2023-04-08T02:28:06.465Z,0.00
2023-04-08T02:29:06.444Z,0.00
2023-04-08T02:30:07.378Z,0.00
2023-04-08T02:31:06.432Z,0.00
2023-04-08T02:32:06.434Z,0.00
2023-04-08T02:33:06.432Z,0.00
2023-04-08T02:34:06.401Z,0.00
2023-04-08T02:35:06.370Z,0.00
2023-04-08T02:36:06.357Z,0.00
2023-04-08T02:37:06.344Z,0.00
2023-04-08T02:38:06.332Z,0.00
2023-04-08T02:39:06.503Z,0.00
2023-04-08T02:40:06.317Z,0.00
2023-04-08T02:41:06.315Z,0.00
2023-04-08T02:42:06.286Z,0.00
2023-04-08T02:43:06.284Z,0.00
2023-04-08T02:44:06.399Z,0.00
2023-04-08T02:45:06.259Z,0.00
2023-04-08T02:46:06.324Z,0.00
2023-04-08T02:47:06.241Z,0.00
2023-04-08T02:48:06.463Z,0.00
2023-04-08T02:49:06.228Z,0.00
2023-04-08T02:50:06.208Z,0.00
2023-04-08T02:51:06.226Z,0.00
2023-04-08T02:52:06.182Z,0.00
2023-04-08T02:53:06.164Z,0.00
2023-04-08T02:54:06.201Z,0.00
2023-04-08T02:55:06.143Z,0.00
2023-04-08T02:56:06.325Z,0.00
2023-04-08T02:57:06.138Z,0.00
2023-04-08T02:58:06.150Z,0.00
2023-04-08T02:59:06.112Z,0.00
2023-04-08T03:00:06.091Z,0.00
2023-04-08T03:01:06.135Z,0.00
2023-04-08T03:02:06.269Z,0.00
2023-04-08T03:03:06.236Z,0.00
2023-04-08T03:04:06.186Z,0.00
2023-04-08T03:05:06.049Z,0.00
2023-04-08T03:06:06.018Z,0.00
2023-04-08T03:07:08.101Z,0.00
2023-04-08T03:08:06.009Z,0.00
2023-04-08T03:09:06.000Z,0.00
2023-04-08T03:10:05.976Z,0.00
2023-04-08T03:11:05.972Z,0.00
2023-04-08T03:12:05.968Z,0.00
2023-04-08T03:13:05.946Z,0.00
2023-04-08T03:14:05.928Z,0.00
2023-04-08T03:15:05.927Z,0.00
2023-04-08T03:16:05.965Z,0.00
2023-04-08T03:17:05.905Z,0.00
2023-04-08T03:18:05.956Z,0.00
2023-04-08T03:19:05.878Z,0.00
2023-04-08T03:20:05.897Z,0.00
2023-04-08T03:21:05.872Z,0.00
2023-04-08T03:22:05.842Z,0.00
2023-04-08T03:23:05.841Z,0.00
2023-04-08T03:24:05.826Z,0.00
2023-04-08T03:25:05.816Z,0.00
2023-04-08T03:26:05.811Z,0.00
2023-04-08T03:27:05.789Z,0.00
2023-04-08T03:28:05.776Z,0.00
2023-04-08T03:29:05.788Z,0.00
2023-04-08T03:30:05.773Z,0.00
2023-04-08T03:31:05.746Z,0.00
2023-04-08T03:32:05.785Z,0.00
2023-04-08T03:33:07.534Z,0.00
2023-04-08T03:34:05.717Z,0.00
2023-04-08T03:35:05.731Z,0.00
2023-04-08T03:36:05.779Z,0.00
2023-04-08T03:37:05.859Z,0.00
2023-04-08T03:38:05.667Z,0.00
2023-04-08T03:39:05.688Z,0.00
2023-04-08T03:40:05.655Z,0.00
2023-04-08T03:41:05.643Z,0.00
2023-04-08T03:42:05.630Z,0.00
2023-04-08T03:43:05.633Z,0.00
2023-04-08T03:44:05.612Z,0.00
2023-04-08T03:45:05.601Z,0.00
2023-04-08T03:46:05.593Z,0.00
2023-04-08T03:47:05.568Z,0.00
2023-04-08T03:48:05.602Z,0.00
2023-04-08T03:49:05.568Z,0.00
2023-04-08T03:50:05.552Z,0.00
2023-04-08T03:51:05.611Z,0.00
2023-04-08T03:52:05.535Z,0.00
2023-04-08T03:53:05.518Z,0.00
2023-04-08T03:54:05.498Z,0.00
2023-04-08T03:55:05.481Z,0.00
2023-04-08T03:56:05.478Z,0.00
2023-04-08T03:57:05.455Z,0.00
2023-04-08T03:58:05.442Z,0.00
2023-04-08T03:59:05.448Z,0.00
2023-04-08T04:00:05.433Z,0.00
2023-04-08T04:01:05.411Z,0.00
2023-04-08T04:02:05.611Z,0.00
2023-04-08T04:03:05.723Z,4.00
2023-04-08T04:04:05.604Z,0.00
2023-04-08T04:05:05.399Z,4.00
2023-04-08T04:06:05.355Z,4.00
2023-04-08T04:07:05.352Z,4.00
2023-04-08T04:08:05.353Z,4.00
2023-04-08T04:09:05.349Z,8.00
2023-04-08T04:10:05.315Z,8.00
2023-04-08T04:11:05.308Z,8.00
2023-04-08T04:12:05.289Z,8.00
2023-04-08T04:13:05.277Z,8.00
2023-04-08T04:14:05.285Z,12.00
2023-04-08T04:15:05.277Z,12.00
2023-04-08T04:16:05.304Z,16.00
2023-04-08T04:17:05.237Z,16.00
2023-04-08T04:18:05.283Z,20.00
2023-04-08T04:19:05.309Z,20.00
2023-04-08T04:20:05.207Z,24.00
2023-04-08T04:21:05.199Z,28.00
2023-04-08T04:22:05.185Z,28.00
2023-04-08T04:23:05.179Z,28.00
2023-04-08T04:24:05.178Z,36.00
2023-04-08T04:25:05.145Z,44.00
2023-04-08T04:26:05.139Z,48.00
2023-04-08T04:27:05.129Z,56.00
2023-04-08T04:28:05.124Z,60.00
2023-04-08T04:29:05.112Z,64.00
2023-04-08T04:30:05.093Z,68.00
2023-04-08T04:31:05.140Z,72.00
2023-04-08T04:32:05.068Z,88.00
2023-04-08T04:33:05.170Z,96.00
2023-04-08T04:34:05.049Z,108.00
2023-04-08T04:35:05.039Z,112.00
2023-04-08T04:36:05.051Z,120.00
2023-04-08T04:37:05.180Z,112.00
2023-04-08T04:38:04.998Z,124.00
2023-04-08T04:39:04.989Z,132.00
2023-04-08T04:40:05.004Z,148.00
2023-04-08T04:41:04.970Z,184.00
2023-04-08T04:42:04.972Z,180.00
2023-04-08T04:43:04.952Z,168.00
2023-04-08T04:44:04.933Z,180.00
2023-04-08T04:45:04.928Z,184.00
2023-04-08T04:46:04.936Z,188.00
2023-04-08T04:47:04.919Z,184.00
2023-04-08T04:48:04.900Z,196.00
2023-04-08T04:49:04.881Z,200.00
2023-04-08T04:50:04.896Z,196.00
2023-04-08T04:51:04.854Z,228.00
2023-04-08T04:52:04.863Z,264.00
2023-04-08T04:53:04.842Z,264.00
2023-04-08T04:54:04.824Z,244.00
2023-04-08T04:55:04.817Z,232.00
2023-04-08T04:56:04.879Z,232.00
2023-04-08T04:57:04.812Z,244.00
2023-04-08T04:58:04.781Z,284.00
2023-04-08T04:59:04.777Z,304.00
2023-04-08T05:00:05.492Z,308.00
2023-04-08T05:01:04.748Z,336.00
2023-04-08T05:02:04.884Z,312.00
2023-04-08T05:03:04.846Z,360.00
2023-04-08T05:04:04.716Z,388.00
2023-04-08T05:05:04.914Z,388.00
2023-04-08T05:06:04.695Z,376.00
2023-04-08T05:07:04.692Z,428.00
2023-04-08T05:08:04.692Z,452.00
2023-04-08T05:09:04.665Z,464.00
2023-04-08T05:10:04.667Z,480.00
2023-04-08T05:11:04.642Z,496.00
2023-04-08T05:12:04.676Z,560.00
2023-04-08T05:13:04.640Z,612.00
2023-04-08T05:14:04.609Z,660.00
2023-04-08T05:15:04.615Z,648.00
2023-04-08T05:16:04.636Z,632.00
2023-04-08T05:17:04.594Z,664.00
2023-04-08T05:18:04.666Z,696.00
2023-04-08T05:19:04.561Z,772.00
2023-04-08T05:20:04.546Z,708.00
2023-04-08T05:21:04.545Z,844.00
2023-04-08T05:22:04.532Z,856.00
2023-04-08T05:23:04.542Z,916.00
2023-04-08T05:24:04.518Z,976.00
2023-04-08T05:25:04.531Z,1140.00
2023-04-08T05:26:04.481Z,1160.00
2023-04-08T05:27:04.472Z,1248.00
2023-04-08T05:28:04.501Z,1316.00
2023-04-08T05:29:04.463Z,1388.00
2023-04-08T05:30:04.443Z,1520.00
2023-04-08T05:31:04.518Z,1700.00
2023-04-08T05:32:04.452Z,1752.00
2023-04-08T05:33:04.515Z,1836.00
2023-04-08T05:34:04.400Z,1736.00
2023-04-08T05:35:04.384Z,1520.00
2023-04-08T05:36:04.414Z,1312.00
2023-04-08T05:37:04.364Z,1100.00
2023-04-08T05:38:04.366Z,1160.00
2023-04-08T05:39:04.340Z,1280.00
2023-04-08T05:40:04.337Z,1280.00
2023-04-08T05:41:04.330Z,1268.00
2023-04-08T05:42:04.307Z,1684.00
2023-04-08T05:43:04.310Z,1696.00
2023-04-08T05:44:04.307Z,1704.00
2023-04-08T05:45:04.280Z,1644.00
2023-04-08T05:46:04.313Z,1652.00
2023-04-08T05:47:04.440Z,1588.00
2023-04-08T05:48:04.303Z,1740.00
2023-04-08T05:49:04.236Z,1976.00
2023-04-08T05:50:04.232Z,2128.00
2023-04-08T05:51:04.208Z,2240.00
2023-04-08T05:52:04.243Z,2624.00
2023-04-08T05:53:04.186Z,2324.00
2023-04-08T05:54:04.181Z,2356.00
2023-04-08T05:55:04.171Z,2128.00
2023-04-08T05:56:04.253Z,2112.00
2023-04-08T05:57:04.144Z,1952.00
2023-04-08T05:58:04.200Z,2132.00
2023-04-08T05:59:04.112Z,2464.00
2023-04-08T06:00:04.153Z,2536.00
2023-04-08T06:01:04.099Z,2532.00
2023-04-08T06:02:04.210Z,2840.00
2023-04-08T06:03:04.551Z,2796.00
2023-04-08T06:04:04.216Z,2956.00
2023-04-08T06:05:04.088Z,2996.00
2023-04-08T06:06:04.036Z,3340.00
2023-04-08T06:07:04.021Z,3692.00
2023-04-08T06:08:04.038Z,3580.00
2023-04-08T06:09:04.003Z,3280.00
2023-04-08T06:10:03.998Z,3240.00
2023-04-08T06:11:04.003Z,3496.00
2023-04-08T06:12:03.979Z,3948.00
2023-04-08T06:13:03.952Z,3716.00
2023-04-08T06:14:03.944Z,3848.00
2023-04-08T06:15:03.935Z,3668.00
2023-04-08T06:16:04.013Z,3396.00
2023-04-08T06:17:04.001Z,3576.00
2023-04-08T06:18:03.924Z,3680.00
2023-04-08T06:19:03.887Z,3812.00
2023-04-08T06:20:03.976Z,3612.00
2023-04-08T06:21:03.861Z,3264.00
2023-04-08T06:22:03.864Z,3108.00
2023-04-08T06:23:03.851Z,3188.00
2023-04-08T06:24:03.835Z,3124.00
2023-04-08T06:25:03.820Z,3120.00
2023-04-08T06:26:03.821Z,3380.00
2023-04-08T06:27:03.794Z,3616.00
2023-04-08T06:28:03.786Z,4004.00
2023-04-08T06:29:03.776Z,4964.00
2023-04-08T06:30:04.418Z,5092.00
2023-04-08T06:31:03.799Z,4744.00
2023-04-08T06:32:03.825Z,4324.00
2023-04-08T06:33:03.792Z,3600.00
2023-04-08T06:34:03.722Z,3752.00
2023-04-08T06:35:03.722Z,4284.00
2023-04-08T06:36:03.746Z,4556.00
2023-04-08T06:37:03.683Z,4624.00
2023-04-08T06:38:03.675Z,4556.00
2023-04-08T06:39:03.663Z,4552.00
2023-04-08T06:40:03.742Z,4680.00
2023-04-08T06:41:03.644Z,5036.00
2023-04-08T06:42:03.647Z,4952.00
2023-04-08T06:43:03.619Z,5196.00
2023-04-08T06:44:03.606Z,4680.00
2023-04-08T06:45:03.608Z,4992.00
2023-04-08T06:46:03.689Z,5564.00
2023-04-08T06:47:03.591Z,5212.00
2023-04-08T06:48:03.636Z,5076.00
2023-04-08T06:49:03.551Z,4572.00
2023-04-08T06:50:03.578Z,4132.00
2023-04-08T06:51:03.531Z,4316.00
2023-04-08T06:52:03.520Z,4304.00
2023-04-08T06:53:03.521Z,4212.00
2023-04-08T06:54:03.499Z,4340.00
2023-04-08T06:55:03.499Z,5000.00
2023-04-08T06:56:03.505Z,4924.00
2023-04-08T06:57:03.481Z,6076.00
2023-04-08T06:58:03.460Z,5888.00
2023-04-08T06:59:03.798Z,6164.00
2023-04-08T07:00:11.450Z,6408.00
2023-04-08T07:01:03.596Z,6744.00
2023-04-08T07:02:03.723Z,7248.00
2023-04-08T07:03:03.497Z,7212.00
2023-04-08T07:04:03.524Z,7624.00
2023-04-08T07:05:03.516Z,8160.00
2023-04-08T07:06:03.372Z,7332.00
2023-04-08T07:07:03.356Z,7208.00
2023-04-08T07:08:03.348Z,7316.00
2023-04-08T07:09:03.338Z,7632.00
2023-04-08T07:10:03.335Z,7356.00
2023-04-08T07:11:03.332Z,7940.00
2023-04-08T07:12:03.300Z,10260.00
2023-04-08T07:13:03.290Z,11604.00
2023-04-08T07:14:03.287Z,10992.00
2023-04-08T07:15:03.280Z,10232.00
2023-04-08T07:16:03.273Z,9196.00
2023-04-08T07:17:03.282Z,9128.00
2023-04-08T07:18:03.273Z,10488.00
2023-04-08T07:19:03.220Z,11148.00
2023-04-08T07:20:03.259Z,10496.00
2023-04-08T07:21:03.215Z,8956.00
2023-04-08T07:22:03.188Z,8192.00
2023-04-08T07:23:03.178Z,8200.00
2023-04-08T07:24:03.165Z,7924.00
2023-04-08T07:25:03.184Z,7260.00
2023-04-08T07:26:03.168Z,7296.00
2023-04-08T07:27:03.153Z,7476.00
2023-04-08T07:28:03.123Z,6932.00
2023-04-08T07:29:03.118Z,6588.00
2023-04-08T07:30:03.115Z,6136.00
2023-04-08T07:31:03.144Z,5496.00
2023-04-08T07:32:03.081Z,5848.00
2023-04-08T07:33:03.071Z,6740.00
2023-04-08T07:34:03.090Z,6168.00
2023-04-08T07:35:03.069Z,5532.00
2023-04-08T07:36:03.161Z,5004.00
2023-04-08T07:37:03.017Z,5208.00
2023-04-08T07:38:03.009Z,7180.00
2023-04-08T07:39:04.053Z,8580.00
2023-04-08T07:40:02.994Z,7964.00
2023-04-08T07:41:03.003Z,7772.00
2023-04-08T07:42:02.966Z,8724.00
2023-04-08T07:43:02.954Z,8908.00
2023-04-08T07:44:02.962Z,8216.00
2023-04-08T07:45:02.957Z,7504.00
2023-04-08T07:46:02.984Z,7144.00
2023-04-08T07:47:02.909Z,7864.00
2023-04-08T07:48:02.954Z,9652.00
2023-04-08T07:49:02.881Z,10420.00
2023-04-08T07:50:02.909Z,10364.00
2023-04-08T07:51:08.419Z,11276.00
2023-04-08T07:52:03.866Z,12192.00
2023-04-08T07:53:02.852Z,11212.00
2023-04-08T07:54:02.834Z,10976.00
2023-04-08T07:55:02.818Z,10528.00
2023-04-08T07:56:03.015Z,9580.00
2023-04-08T07:57:02.791Z,9176.00
2023-04-08T07:58:02.790Z,9392.00
2023-04-08T07:59:02.815Z,11176.00
2023-04-08T08:00:02.790Z,12756.00
2023-04-08T08:01:02.764Z,11112.00
2023-04-08T08:02:02.773Z,9488.00
2023-04-08T08:03:02.783Z,10260.00
2023-04-08T08:04:02.952Z,11176.00
2023-04-08T08:05:02.799Z,13928.00
2023-04-08T08:06:02.710Z,11960.00
2023-04-08T08:07:02.691Z,8832.00
2023-04-08T08:08:02.696Z,10200.00
2023-04-08T08:09:02.695Z,9428.00
2023-04-08T08:10:02.653Z,10572.00
2023-04-08T08:11:02.665Z,9640.00
2023-04-08T08:12:02.628Z,10616.00
2023-04-08T08:13:02.655Z,11068.00
2023-04-08T08:14:03.467Z,10408.00
2023-04-08T08:15:02.602Z,9784.00
2023-04-08T08:16:02.651Z,8844.00
2023-04-08T08:17:02.803Z,9556.00
2023-04-08T08:18:02.628Z,13600.00
2023-04-08T08:19:02.555Z,16736.00
2023-04-08T08:20:02.556Z,24192.00
2023-04-08T08:21:02.560Z,38688.00
2023-04-08T08:22:03.471Z,19680.00
2023-04-08T08:23:02.508Z,19968.00
2023-04-08T08:24:02.519Z,19200.00
2023-04-08T08:25:02.505Z,15844.00
2023-04-08T08:26:02.485Z,15188.00
2023-04-08T08:27:02.481Z,14772.00
2023-04-08T08:28:02.458Z,19968.00
2023-04-08T08:29:02.449Z,20192.00
2023-04-08T08:30:02.444Z,20352.00
2023-04-08T08:31:02.451Z,17952.00
2023-04-08T08:32:02.422Z,17280.00
2023-04-08T08:33:02.468Z,20544.00
2023-04-08T08:34:02.390Z,17984.00
2023-04-08T08:35:02.382Z,16992.00
2023-04-08T08:36:02.702Z,16704.00
2023-04-08T08:37:02.353Z,20640.00
2023-04-08T08:38:02.340Z,24896.00
2023-04-08T08:39:02.349Z,59168.00
2023-04-08T08:40:02.343Z,24224.00
2023-04-08T08:41:02.330Z,18528.00
2023-04-08T08:42:02.295Z,26624.00
2023-04-08T08:43:02.292Z,24352.00
2023-04-08T08:44:02.284Z,19680.00
2023-04-08T08:45:02.279Z,16832.00
2023-04-08T08:46:02.268Z,13392.00
2023-04-08T08:47:02.399Z,11496.00
2023-04-08T08:48:03.125Z,10476.00
2023-04-08T08:49:02.223Z,9036.00
2023-04-08T08:50:02.227Z,8460.00
2023-04-08T08:51:02.278Z,7892.00
2023-04-08T08:52:02.189Z,6544.00
2023-04-08T08:53:02.187Z,7228.00
2023-04-08T08:54:02.178Z,7864.00
2023-04-08T08:55:04.434Z,7984.00
2023-04-08T08:56:16.484Z,7692.00
2023-04-08T08:57:03.125Z,7304.00
2023-04-08T08:58:02.162Z,6444.00
2023-04-08T08:59:02.113Z,6104.00
2023-04-08T09:00:02.165Z,6196.00
2023-04-08T09:01:02.085Z,6020.00
2023-04-08T09:02:02.180Z,6300.00
2023-04-08T09:03:02.203Z,7192.00
2023-04-08T09:04:02.156Z,6944.00
2023-04-08T09:05:02.338Z,5116.00
2023-04-08T09:06:02.148Z,5068.00
2023-04-08T09:07:02.021Z,5256.00
2023-04-08T09:08:02.006Z,5872.00
2023-04-08T09:09:02.009Z,6664.00
2023-04-08T09:10:02.078Z,6480.00
2023-04-08T09:11:01.995Z,6240.00
2023-04-08T09:12:01.985Z,7468.00
2023-04-08T09:13:01.969Z,7304.00
2023-04-08T09:14:01.943Z,7184.00
2023-04-08T09:15:01.927Z,7052.00
2023-04-08T09:16:02.063Z,7024.00
2023-04-08T09:17:01.911Z,7776.00
2023-04-08T09:18:01.982Z,7712.00
2023-04-08T09:19:01.883Z,7084.00
2023-04-08T09:20:01.885Z,5804.00
2023-04-08T09:21:02.002Z,5424.00
2023-04-08T09:22:02.052Z,5484.00
2023-04-08T09:23:01.838Z,4996.00
2023-04-08T09:24:01.865Z,4628.00
2023-04-08T09:25:01.815Z,4732.00
2023-04-08T09:26:01.808Z,4772.00
2023-04-08T09:27:01.794Z,5140.00
2023-04-08T09:28:01.826Z,5960.00
2023-04-08T09:29:08.491Z,6696.00
2023-04-08T09:30:02.775Z,6876.00
2023-04-08T09:31:01.752Z,6344.00
2023-04-08T09:32:01.899Z,6056.00
2023-04-08T09:33:01.785Z,6012.00
2023-04-08T09:34:01.802Z,6832.00
2023-04-08T09:35:01.721Z,7044.00
2023-04-08T09:36:01.816Z,7116.00
2023-04-08T09:37:01.694Z,10372.00
2023-04-08T09:38:01.689Z,10036.00
2023-04-08T09:39:01.735Z,8216.00
2023-04-08T09:40:01.657Z,6896.00
2023-04-08T09:41:01.662Z,6148.00
2023-04-08T09:42:01.656Z,5440.00
2023-04-08T09:43:01.645Z,5620.00
2023-04-08T09:44:01.640Z,6964.00
2023-04-08T09:45:01.600Z,9476.00
2023-04-08T09:46:01.693Z,13880.00
2023-04-08T09:47:01.584Z,20544.00
2023-04-08T09:48:01.620Z,26912.00
2023-04-08T09:49:01.584Z,29632.00
2023-04-08T09:50:01.540Z,76000.00
2023-04-08T09:51:01.529Z,29088.00
2023-04-08T09:52:01.533Z,25856.00
2023-04-08T09:53:01.505Z,24608.00
2023-04-08T09:54:01.507Z,21728.00
2023-04-08T09:55:01.540Z,20864.00
2023-04-08T09:56:01.478Z,21376.00
2023-04-08T09:57:01.468Z,18848.00
2023-04-08T09:58:01.450Z,14524.00
2023-04-08T09:59:01.476Z,11832.00
2023-04-08T10:00:01.474Z,9268.00
2023-04-08T10:01:01.445Z,7512.00
2023-04-08T10:02:01.605Z,6796.00
2023-04-08T10:03:01.603Z,7848.00
2023-04-08T10:04:01.536Z,11080.00
2023-04-08T10:05:01.421Z,20992.00
2023-04-08T10:06:01.365Z,38944.00
2023-04-08T10:07:01.443Z,48768.00
2023-04-08T10:08:01.345Z,49856.00
2023-04-08T10:09:01.347Z,45728.00
2023-04-08T10:10:01.322Z,39744.00
2023-04-08T10:11:01.312Z,31488.00
2023-04-08T10:12:02.042Z,30080.00
2023-04-08T10:13:01.282Z,33152.00
2023-04-08T10:14:01.372Z,34560.00
2023-04-08T10:15:01.293Z,39008.00
2023-04-08T10:16:01.276Z,42176.00
2023-04-08T10:17:01.362Z,38848.00
2023-04-08T10:18:01.296Z,39200.00
2023-04-08T10:19:01.253Z,34432.00
2023-04-08T10:20:01.222Z,35968.00
2023-04-08T10:21:01.221Z,30656.00
2023-04-08T10:22:01.207Z,31488.00
2023-04-08T10:23:01.177Z,24256.00
2023-04-08T10:24:01.176Z,24128.00
2023-04-08T10:25:01.237Z,22688.00
2023-04-08T10:26:01.339Z,19456.00
2023-04-08T10:27:01.147Z,18080.00
2023-04-08T10:28:01.146Z,15844.00
2023-04-08T10:29:01.148Z,12640.00
2023-04-08T10:30:01.097Z,10816.00
2023-04-08T10:31:01.102Z,12112.00
2023-04-08T10:32:01.192Z,11372.00
2023-04-08T10:33:01.177Z,8768.00
2023-04-08T10:34:01.048Z,9664.00
2023-04-08T10:35:01.053Z,12460.00
2023-04-08T10:36:01.056Z,16544.00
2023-04-08T10:37:01.020Z,20640.00
2023-04-08T10:38:01.055Z,21152.00
2023-04-08T10:39:01.014Z,19232.00
2023-04-08T10:40:01.078Z,17856.00
2023-04-08T10:41:00.976Z,16384.00
2023-04-08T10:42:00.965Z,14540.00
2023-04-08T10:43:00.996Z,12876.00
2023-04-08T10:44:00.955Z,12452.00
2023-04-08T10:45:00.998Z,14248.00
2023-04-08T10:46:01.000Z,16544.00
2023-04-08T10:47:00.924Z,19104.00
2023-04-08T10:48:00.996Z,22944.00
2023-04-08T10:49:00.895Z,26528.00
2023-04-08T10:50:00.887Z,25184.00
2023-04-08T10:51:01.053Z,34752.00
2023-04-08T10:52:00.858Z,25728.00
2023-04-08T10:53:00.835Z,22432.00
2023-04-08T10:54:00.825Z,28864.00
2023-04-08T10:55:00.832Z,51968.00
2023-04-08T10:56:00.807Z,31360.00
2023-04-08T10:57:00.946Z,20288.00
2023-04-08T10:58:00.780Z,16960.00
2023-04-08T10:59:00.770Z,18496.00
2023-04-08T11:00:00.761Z,20128.00
2023-04-08T11:01:00.771Z,19488.00
2023-04-08T11:02:00.884Z,18304.00
2023-04-08T11:03:00.807Z,14388.00
2023-04-08T11:04:00.802Z,11948.00
2023-04-08T11:05:00.736Z,11780.00
2023-04-08T11:06:00.692Z,11704.00
2023-04-08T11:07:00.713Z,9304.00
2023-04-08T11:08:00.697Z,9920.00
2023-04-08T11:09:00.678Z,12268.00
2023-04-08T11:10:00.663Z,15156.00
2023-04-08T11:11:00.669Z,16164.00
2023-04-08T11:12:00.641Z,15956.00
2023-04-08T11:13:00.624Z,14324.00
2023-04-08T11:14:00.608Z,13676.00
2023-04-08T11:15:00.598Z,14220.00
2023-04-08T11:16:00.787Z,14152.00
2023-04-08T11:17:00.589Z,13648.00
2023-04-08T11:18:00.653Z,13656.00
2023-04-08T11:19:00.554Z,13328.00
2023-04-08T11:20:00.568Z,12056.00
2023-04-08T11:21:00.599Z,11636.00
2023-04-08T11:22:00.533Z,14436.00
2023-04-08T11:23:00.511Z,20704.00
2023-04-08T11:24:00.494Z,27552.00
2023-04-08T11:25:00.496Z,30080.00
2023-04-08T11:26:00.478Z,30752.00
2023-04-08T11:27:00.479Z,28864.00
2023-04-08T11:28:01.051Z,33792.00
2023-04-08T11:29:00.439Z,20352.00
2023-04-08T11:30:00.428Z,19520.00
2023-04-08T11:31:00.558Z,20928.00
2023-04-08T11:32:00.411Z,20576.00
2023-04-08T11:33:00.489Z,20032.00
2023-04-08T11:34:00.402Z,19744.00
2023-04-08T11:35:00.690Z,22048.00
2023-04-08T11:36:00.429Z,25952.00
2023-04-08T11:37:00.354Z,26496.00
2023-04-08T11:38:00.351Z,27616.00
2023-04-08T11:39:00.333Z,27840.00
2023-04-08T11:40:00.492Z,24704.00
2023-04-08T11:41:00.425Z,22304.00
2023-04-08T11:42:00.292Z,45760.00
2023-04-08T11:43:00.281Z,18656.00
2023-04-08T11:44:00.268Z,16448.00
2023-04-08T11:45:00.287Z,16800.00
2023-04-08T11:46:00.288Z,28224.00
2023-04-08T11:47:00.290Z,18144.00
2023-04-08T11:48:00.844Z,22080.00
2023-04-08T11:49:00.215Z,27680.00
2023-04-08T11:50:00.218Z,37792.00
2023-04-08T11:51:00.194Z,29312.00
2023-04-08T11:52:00.270Z,22784.00
2023-04-08T11:53:00.178Z,20416.00
2023-04-08T11:54:00.166Z,19264.00
2023-04-08T11:55:00.161Z,19872.00
2023-04-08T11:56:00.203Z,26496.00
2023-04-08T11:57:00.156Z,25856.00
2023-04-08T11:58:00.141Z,33248.00
2023-04-08T11:59:00.153Z,82816.00
2023-04-08T12:00:00.116Z,60032.00
2023-04-08T12:01:00.119Z,29728.00
2023-04-08T12:02:00.206Z,33216.00
2023-04-08T12:03:00.180Z,44928.00
2023-04-08T12:04:00.563Z,24608.00
2023-04-08T12:05:00.148Z,24992.00
2023-04-08T12:06:00.037Z,28864.00
2023-04-08T12:07:00.020Z,24352.00
2023-04-08T12:08:00.030Z,23776.00
2023-04-08T12:08:59.996Z,20384.00
2023-04-08T12:09:59.979Z,18208.00
2023-04-08T12:11:12.952Z,17440.00
2023-04-08T12:12:00.956Z,17376.00
2023-04-08T12:12:59.947Z,17440.00
2023-04-08T12:13:59.939Z,19776.00
2023-04-08T12:14:59.935Z,40704.00
2023-04-08T12:15:59.948Z,14620.00
2023-04-08T12:16:59.904Z,14568.00
2023-04-08T12:17:59.947Z,15632.00
2023-04-08T12:18:59.881Z,17184.00
2023-04-08T12:19:59.886Z,32288.00
2023-04-08T12:20:59.936Z,29152.00
2023-04-08T12:21:59.847Z,89920.00
2023-04-08T12:22:59.972Z,87648.00
2023-04-08T12:23:59.845Z,90912.00
2023-04-08T12:24:59.846Z,92960.00